createdAt,value
2022-12-12T00:01:22.922Z,22.97
2022-12-12T00:04:28.080Z,24.27
2022-12-12T00:07:31.636Z,34.80
2022-12-12T00:10:36.531Z,22.27
2022-12-12T00:13:40.869Z,23.67
2022-12-12T00:16:44.451Z,24.87
2022-12-12T00:19:49.402Z,24.57
2022-12-12T00:22:53.053Z,25.47
2022-12-12T00:25:59.632Z,31.47
2022-12-12T00:29:05.429Z,26.27
2022-12-12T00:32:09.206Z,24.47
2022-12-12T00:35:14.486Z,30.10
2022-12-12T00:38:19.163Z,31.97
2022-12-12T00:41:23.953Z,27.43
2022-12-12T00:44:27.603Z,25.97
2022-12-12T00:47:31.241Z,26.03
2022-12-12T00:50:36.934Z,27.60
2022-12-12T00:53:41.190Z,43.37
2022-12-12T00:56:44.801Z,32.80
2022-12-12T00:59:48.433Z,26.93
2022-12-12T01:02:52.123Z,26.17
2022-12-12T01:05:57.103Z,22.60
2022-12-12T01:09:09.618Z,26.90
2022-12-12T01:12:13.351Z,72.77
2022-12-12T01:15:28.755Z,43.23
2022-12-12T01:18:32.346Z,30.87
2022-12-12T01:21:38.476Z,34.10
2022-12-12T01:24:42.145Z,29.67
2022-12-12T01:27:46.663Z,27.37
2022-12-12T01:30:50.251Z,25.37
2022-12-12T01:33:53.907Z,22.73
2022-12-12T01:36:59.106Z,22.23
2022-12-12T01:40:03.246Z,23.27
2022-12-12T01:43:12.158Z,21.90
2022-12-12T01:46:40.764Z,23.30
2022-12-12T01:49:48.506Z,22.27
2022-12-12T01:52:53.491Z,24.10
2022-12-12T01:55:58.628Z,25.37
2022-12-12T01:59:06.332Z,22.97
2022-12-12T02:02:11.588Z,23.07
2022-12-12T02:05:25.628Z,24.23
2022-12-12T02:08:31.968Z,21.87
2022-12-12T02:11:44.726Z,23.57
2022-12-12T02:14:53.968Z,21.53
2022-12-12T02:18:12.666Z,22.93
2022-12-12T02:21:28.088Z,22.70
2022-12-12T02:25:09.863Z,21.60
2022-12-12T02:29:01.546Z,21.47
2022-12-12T02:32:20.930Z,21.87
2022-12-12T02:35:36.829Z,20.70
2022-12-12T02:38:54.815Z,21.70
2022-12-12T02:42:07.383Z,20.77
2022-12-12T02:45:21.518Z,21.70
2022-12-12T02:48:36.989Z,20.40
2022-12-12T02:51:43.354Z,21.23
2022-12-12T02:54:48.663Z,23.57
2022-12-12T02:57:55.400Z,22.93
2022-12-12T03:01:15.857Z,23.53
2022-12-12T03:04:48.384Z,22.10
2022-12-12T03:08:11.221Z,22.50
2022-12-12T03:11:25.887Z,22.13
2022-12-12T03:14:45.838Z,22.70
2022-12-12T03:17:59.457Z,21.60
2022-12-12T03:21:11.692Z,22.47
2022-12-12T03:24:25.842Z,21.70
2022-12-12T03:27:36.771Z,21.30
2022-12-12T03:30:46.768Z,22.77
2022-12-12T03:33:58.806Z,21.03
2022-12-12T03:37:12.960Z,22.37
2022-12-12T03:40:24.341Z,22.83
2022-12-12T03:43:33.177Z,22.97
2022-12-12T03:46:49.165Z,22.43
2022-12-12T03:50:00.187Z,21.37
2022-12-12T03:53:12.120Z,23.37
2022-12-12T03:56:26.149Z,23.77
2022-12-12T03:59:38.341Z,23.00
2022-12-12T04:02:52.184Z,21.90
2022-12-12T04:06:22.181Z,22.73
2022-12-12T04:09:45.857Z,22.50
2022-12-12T04:13:06.461Z,22.17
2022-12-12T04:16:15.489Z,22.07
2022-12-12T04:19:45.055Z,21.97
2022-12-12T04:23:17.206Z,22.50
2022-12-12T04:26:42.313Z,20.97
2022-12-12T04:29:54.576Z,22.43
2022-12-12T04:33:07.088Z,22.53
2022-12-12T04:36:14.921Z,22.53
2022-12-12T04:39:21.662Z,21.73
2022-12-12T04:42:32.446Z,22.33
2022-12-12T04:45:41.668Z,22.17
2022-12-12T04:48:54.921Z,22.80
2022-12-12T04:52:06.691Z,22.53
2022-12-12T04:55:18.717Z,22.53
2022-12-12T04:58:24.779Z,22.20
2022-12-12T05:01:39.529Z,20.97
2022-12-12T05:04:53.901Z,20.37
2022-12-12T05:08:04.211Z,19.23
2022-12-12T05:11:09.134Z,20.07
2022-12-12T05:14:18.493Z,19.83
2022-12-12T05:17:32.255Z,19.27
2022-12-12T05:20:36.545Z,20.00
2022-12-12T05:23:40.158Z,18.23
2022-12-12T05:26:44.042Z,19.30
2022-12-12T05:29:49.145Z,20.23
2022-12-12T05:32:53.342Z,20.77
2022-12-12T05:35:56.981Z,20.60
2022-12-12T05:39:00.547Z,20.50
2022-12-12T05:42:04.262Z,19.53
2022-12-12T05:45:12.545Z,20.97
2022-12-12T05:48:21.044Z,24.50
2022-12-12T05:51:27.821Z,24.20
2022-12-12T05:54:31.709Z,24.70
2022-12-12T05:57:35.407Z,26.33
2022-12-12T06:00:40.431Z,25.07
2022-12-12T06:03:44.102Z,24.83
2022-12-12T06:06:47.932Z,27.43
2022-12-12T06:09:51.505Z,25.57
2022-12-12T06:12:55.132Z,25.87
2022-12-12T06:16:00.190Z,27.47
2022-12-12T06:19:05.131Z,26.13
2022-12-12T06:22:08.770Z,24.73
2022-12-12T06:25:14.457Z,32.60
2022-12-12T06:28:18.788Z,28.57
2022-12-12T06:31:25.884Z,24.33
2022-12-12T06:34:29.520Z,24.13
2022-12-12T06:37:33.238Z,22.77
2022-12-12T06:40:40.819Z,23.30
2022-12-12T06:43:45.810Z,24.23
2022-12-12T06:46:50.722Z,35.50
2022-12-12T06:49:54.340Z,31.77
2022-12-12T06:52:57.874Z,71.90
2022-12-12T06:56:01.814Z,49.33
2022-12-12T06:59:06.086Z,42.10
2022-12-12T07:02:13.284Z,26.17
2022-12-12T07:05:17.021Z,24.87
2022-12-12T07:08:20.864Z,73.00
2022-12-12T07:11:28.180Z,40.13
2022-12-12T07:14:32.122Z,37.53
2022-12-12T07:17:37.103Z,35.03
2022-12-12T07:20:41.555Z,30.63
2022-12-12T07:23:45.442Z,28.87
2022-12-12T07:26:54.537Z,35.20
2022-12-12T07:29:58.092Z,42.70
2022-12-12T07:33:03.862Z,24.20
2022-12-12T07:36:08.363Z,21.50
2022-12-12T07:39:15.945Z,22.30
2022-12-12T07:42:23.895Z,23.30
2022-12-12T07:45:36.566Z,21.60
2022-12-12T07:48:41.686Z,25.00
2022-12-12T07:51:48.963Z,23.43
2022-12-12T07:54:53.067Z,24.27
2022-12-12T07:57:57.095Z,23.07
2022-12-12T08:01:00.753Z,21.07
2022-12-12T08:04:06.202Z,22.00
2022-12-12T08:07:09.810Z,23.83
2022-12-12T08:10:13.760Z,24.37
2022-12-12T08:13:17.898Z,24.33
2022-12-12T08:16:24.469Z,23.57
2022-12-12T08:19:29.905Z,22.10
2022-12-12T08:22:34.179Z,22.73
2022-12-12T08:25:37.898Z,23.63
2022-12-12T08:28:44.001Z,21.97
2022-12-12T08:31:47.654Z,23.83
2022-12-12T08:34:57.155Z,23.37
2022-12-12T08:38:01.192Z,23.23
2022-12-12T08:41:05.009Z,24.00
2022-12-12T08:44:09.298Z,22.97
2022-12-12T08:47:12.974Z,22.57
2022-12-12T08:50:18.468Z,25.83
2022-12-12T08:53:21.994Z,25.13
2022-12-12T08:56:26.078Z,23.97
2022-12-12T08:59:29.903Z,23.73
2022-12-12T09:02:33.642Z,24.13
2022-12-12T09:05:38.769Z,24.93
2022-12-12T09:08:43.680Z,26.10
2022-12-12T09:11:47.450Z,25.17
2022-12-12T09:14:51.026Z,25.53
2022-12-12T09:17:54.651Z,24.37
2022-12-12T09:21:00.399Z,25.87
2022-12-12T09:24:04.133Z,24.40
2022-12-12T09:27:09.007Z,25.47
2022-12-12T09:30:13.937Z,25.27
2022-12-12T09:33:18.366Z,25.10
2022-12-12T09:36:23.267Z,25.13
2022-12-12T09:39:28.059Z,28.60
2022-12-12T09:42:35.002Z,24.43
2022-12-12T09:45:39.369Z,23.93
2022-12-12T09:48:46.831Z,25.63
2022-12-12T09:51:54.029Z,24.93
2022-12-12T09:54:58.912Z,49.20
2022-12-12T09:58:18.803Z,25.63
2022-12-12T10:01:32.545Z,29.20
2022-12-12T10:04:49.385Z,25.70
2022-12-12T10:08:07.918Z,24.77
2022-12-12T10:11:37.522Z,25.37
2022-12-12T10:14:47.001Z,24.47
2022-12-12T10:17:51.640Z,25.67
2022-12-12T10:20:58.803Z,25.40
2022-12-12T10:24:17.058Z,24.47
2022-12-12T10:27:20.654Z,24.50
2022-12-12T10:30:24.422Z,25.00
2022-12-12T10:33:43.654Z,24.27
2022-12-12T10:37:08.076Z,23.67
2022-12-12T10:40:35.600Z,24.93
2022-12-12T10:43:54.280Z,25.57
2022-12-12T10:47:06.210Z,26.50
2022-12-12T10:50:28.343Z,25.57
2022-12-12T10:53:33.759Z,38.43
2022-12-12T10:56:38.737Z,27.27
2022-12-12T10:59:45.251Z,25.27
2022-12-12T11:02:49.329Z,25.40
2022-12-12T11:05:54.646Z,24.03
2022-12-12T11:09:01.885Z,24.17
2022-12-12T11:12:16.132Z,24.33
2022-12-12T11:15:20.121Z,23.47
2022-12-12T11:18:25.629Z,22.97
2022-12-12T11:21:32.679Z,22.53
2022-12-12T11:24:45.193Z,22.30
2022-12-12T11:27:50.352Z,22.57
2022-12-12T11:30:57.288Z,21.80
2022-12-12T11:34:06.617Z,30.67
2022-12-12T11:37:18.673Z,21.67
2022-12-12T11:40:28.498Z,28.93
2022-12-12T11:43:37.002Z,21.50
2022-12-12T11:46:40.575Z,22.53
2022-12-12T11:49:48.742Z,25.73
2022-12-12T11:52:56.597Z,20.33
2022-12-12T11:56:33.191Z,22.80
2022-12-12T12:00:07.143Z,39.07
2022-12-12T12:03:52.744Z,29.00
2022-12-12T12:07:33.585Z,20.87
2022-12-12T12:10:56.394Z,16.83
2022-12-12T12:14:25.142Z,15.03
2022-12-12T12:17:59.070Z,13.97
2022-12-12T12:21:30.036Z,10.00
2022-12-12T12:25:13.061Z,10.17
2022-12-12T12:29:03.004Z,11.63
2022-12-12T12:32:17.581Z,10.33
2022-12-12T12:35:31.801Z,10.53
2022-12-12T12:38:57.891Z,8.80
2022-12-12T12:42:23.851Z,10.77
2022-12-12T12:45:45.706Z,10.00
2022-12-12T12:48:56.790Z,11.17
2022-12-12T12:52:11.048Z,12.13
2022-12-12T12:55:20.385Z,10.63
2022-12-12T12:58:29.124Z,11.67
2022-12-12T13:01:39.859Z,12.37
2022-12-12T13:04:51.262Z,12.53
2022-12-12T13:08:08.423Z,12.90
2022-12-12T13:11:19.229Z,11.50
2022-12-12T13:14:41.349Z,13.93
2022-12-12T13:17:53.350Z,12.00
2022-12-12T13:21:06.693Z,10.93
2022-12-12T13:24:20.593Z,11.67
2022-12-12T13:27:30.687Z,11.53
2022-12-12T13:30:53.702Z,11.33
2022-12-12T13:34:04.671Z,11.40
2022-12-12T13:37:08.990Z,12.30
2022-12-12T13:40:26.910Z,12.50
2022-12-12T13:43:44.169Z,11.77
2022-12-12T13:46:47.884Z,12.10
2022-12-12T13:49:55.058Z,11.80
2022-12-12T13:53:20.972Z,11.07
2022-12-12T13:56:44.984Z,11.33
2022-12-12T14:00:28.548Z,10.43
2022-12-12T14:03:32.421Z,13.47
2022-12-12T14:06:36.208Z,12.17
2022-12-12T14:09:49.450Z,14.23
2022-12-12T14:12:56.671Z,16.87
2022-12-12T14:16:07.206Z,15.80
2022-12-12T14:19:30.302Z,17.50
2022-12-12T14:23:29.506Z,17.60
2022-12-12T14:26:51.753Z,27.77
2022-12-12T14:29:58.004Z,18.53
2022-12-12T14:33:19.966Z,49.37
2022-12-12T14:37:34.435Z,52.53
2022-12-12T14:40:45.946Z,28.77
2022-12-12T14:44:38.221Z,20.10
2022-12-12T14:47:22.523Z,17.77
2022-12-12T14:50:26.186Z,29.23
2022-12-12T14:53:41.126Z,17.93
2022-12-12T14:56:52.747Z,17.00
2022-12-12T14:59:57.866Z,17.40
2022-12-12T15:03:24.693Z,14.72
2022-12-12T15:06:39.385Z,16.43
2022-12-12T15:09:51.164Z,16.27
2022-12-12T15:12:55.167Z,19.73
2022-12-12T15:16:02.862Z,19.60
2022-12-12T15:19:20.169Z,19.90
2022-12-12T15:22:32.041Z,19.80
2022-12-12T15:25:56.747Z,19.60
2022-12-12T15:29:00.492Z,20.13
2022-12-12T15:32:09.830Z,19.47
2022-12-12T15:35:19.853Z,19.10
2022-12-12T15:38:24.194Z,19.60
2022-12-12T15:41:29.884Z,18.83
2022-12-12T15:44:34.458Z,19.67
2022-12-12T15:47:38.193Z,21.23
2022-12-12T15:50:57.227Z,23.10
2022-12-12T15:54:08.004Z,22.00
2022-12-12T15:57:19.076Z,20.47
2022-12-12T16:00:34.586Z,21.73
2022-12-12T16:03:38.264Z,23.40
2022-12-12T16:06:44.488Z,23.63
2022-12-12T16:10:02.929Z,26.27
2022-12-12T16:13:26.269Z,25.70
2022-12-12T16:16:43.800Z,24.57
2022-12-12T16:19:55.302Z,25.67
2022-12-12T16:23:11.937Z,24.37
2022-12-12T16:26:15.816Z,22.83
2022-12-12T16:29:20.849Z,23.17
2022-12-12T16:32:26.828Z,20.20
2022-12-12T16:35:30.475Z,21.20
2022-12-12T16:38:35.419Z,20.33
2022-12-12T16:41:40.569Z,22.17
2022-12-12T16:44:46.146Z,20.90
2022-12-12T16:47:49.923Z,22.53
2022-12-12T16:50:57.711Z,20.90
2022-12-12T16:54:02.469Z,20.57
2022-12-12T16:57:06.228Z,21.70
2022-12-12T17:00:14.231Z,20.83
2022-12-12T17:03:18.789Z,23.57
2022-12-12T17:06:23.332Z,21.47
2022-12-12T17:09:30.007Z,23.13
2022-12-12T17:12:33.961Z,24.00
2022-12-12T17:15:39.114Z,22.90
2022-12-12T17:18:43.004Z,25.27
2022-12-12T17:21:47.147Z,24.53
2022-12-12T17:24:50.831Z,25.73
2022-12-12T17:27:54.692Z,29.17
2022-12-12T17:30:59.927Z,28.80
2022-12-12T17:34:03.914Z,26.27
2022-12-12T17:37:07.939Z,24.77
2022-12-12T17:40:13.978Z,25.10
2022-12-12T17:43:19.083Z,25.50
2022-12-12T17:46:27.796Z,26.80
2022-12-12T17:49:31.677Z,26.53
2022-12-12T17:52:35.322Z,26.37
2022-12-12T17:55:51.496Z,28.10
2022-12-12T17:58:59.529Z,27.37
2022-12-12T18:02:05.964Z,24.90
2022-12-12T18:05:10.898Z,24.40
2022-12-12T18:08:14.503Z,26.07
2022-12-12T18:11:23.429Z,24.93
2022-12-12T18:14:27.093Z,23.90
2022-12-12T18:17:32.190Z,23.80
2022-12-12T18:20:35.841Z,23.97
2022-12-12T18:23:39.662Z,24.40
2022-12-12T18:26:45.078Z,27.67
2022-12-12T18:29:48.669Z,26.70
2022-12-12T18:32:56.088Z,26.50
2022-12-12T18:36:06.192Z,26.70
2022-12-12T18:39:10.091Z,29.60
2022-12-12T18:42:13.741Z,31.53
2022-12-12T18:45:25.183Z,28.90
2022-12-12T18:48:30.993Z,29.80
2022-12-12T18:51:35.622Z,26.57
2022-12-12T18:54:39.446Z,27.97
2022-12-12T18:57:43.343Z,30.37
2022-12-12T19:00:47.641Z,31.70
2022-12-12T19:03:56.793Z,31.57
2022-12-12T19:07:00.500Z,50.67
2022-12-12T19:10:04.317Z,35.53
2022-12-12T19:13:08.210Z,32.93
2022-12-12T19:16:15.478Z,30.37
2022-12-12T19:19:20.868Z,29.30
2022-12-12T19:22:44.304Z,30.27
2022-12-12T19:25:49.046Z,28.67
2022-12-12T19:28:53.953Z,30.30
2022-12-12T19:31:58.805Z,29.83
2022-12-12T19:35:03.921Z,31.43
2022-12-12T19:38:07.702Z,31.43
2022-12-12T19:41:14.140Z,31.13
2022-12-12T19:44:17.745Z,28.33
2022-12-12T19:47:21.471Z,27.37
2022-12-12T19:50:26.545Z,27.03
2022-12-12T19:53:30.202Z,29.60
2022-12-12T19:56:35.901Z,53.20
2022-12-12T19:59:39.720Z,83.47
2022-12-12T20:02:43.335Z,69.17
2022-12-12T20:05:53.435Z,62.07
2022-12-12T20:09:00.120Z,51.13
2022-12-12T20:12:04.471Z,45.57
2022-12-12T20:15:09.590Z,35.87
2022-12-12T20:18:16.395Z,29.87
2022-12-12T20:21:59.169Z,26.03
2022-12-12T20:24:49.520Z,25.90
2022-12-12T20:27:53.233Z,23.23
2022-12-12T20:31:07.078Z,21.83
2022-12-12T20:34:13.706Z,23.50
2022-12-12T20:37:20.313Z,23.17
2022-12-12T20:40:23.976Z,31.87
2022-12-12T20:43:29.984Z,21.70
2022-12-12T20:46:37.216Z,24.67
2022-12-12T20:49:43.540Z,24.07
2022-12-12T20:52:48.564Z,25.80
2022-12-12T20:55:52.122Z,23.73
2022-12-12T20:58:58.032Z,24.67
2022-12-12T21:02:02.405Z,24.90
2022-12-12T21:05:08.559Z,23.17
2022-12-12T21:08:13.624Z,23.57
2022-12-12T21:11:21.668Z,23.53
2022-12-12T21:14:26.484Z,23.77
2022-12-12T21:17:30.804Z,23.47
2022-12-12T21:20:34.449Z,24.93
2022-12-12T21:23:39.876Z,23.57
2022-12-12T21:26:44.135Z,24.53
2022-12-12T21:29:48.210Z,25.20
2022-12-12T21:32:51.812Z,25.20
2022-12-12T21:35:56.257Z,26.70
2022-12-12T21:39:03.468Z,26.37
2022-12-12T21:42:07.230Z,24.80
2022-12-12T21:45:12.191Z,26.70
2022-12-12T21:48:15.987Z,26.17
2022-12-12T21:51:20.064Z,27.93
2022-12-12T21:54:26.489Z,26.27
2022-12-12T21:57:30.108Z,24.97
2022-12-12T22:00:39.970Z,26.37
2022-12-12T22:03:44.355Z,25.97
2022-12-12T22:06:48.178Z,28.07
2022-12-12T22:09:57.412Z,24.97
2022-12-12T22:13:15.000Z,23.63
2022-12-12T22:16:20.918Z,25.20
2022-12-12T22:19:24.566Z,24.57
2022-12-12T22:22:29.075Z,23.03
2022-12-12T22:25:34.729Z,25.83
2022-12-12T22:28:38.287Z,22.87
2022-12-12T22:31:43.112Z,23.93
2022-12-12T22:34:47.858Z,23.80
2022-12-12T22:37:51.720Z,24.80
2022-12-12T22:40:57.381Z,23.90
2022-12-12T22:44:03.031Z,25.17
2022-12-12T22:47:06.801Z,24.50
2022-12-12T22:50:11.644Z,23.93
2022-12-12T22:53:15.637Z,25.00
2022-12-12T22:56:20.655Z,25.43
2022-12-12T22:59:24.276Z,25.43
2022-12-12T23:02:27.931Z,24.97
2022-12-12T23:05:31.940Z,23.37
2022-12-12T23:08:35.625Z,23.53
2022-12-12T23:11:40.622Z,24.37
2022-12-12T23:14:44.523Z,25.40
2022-12-12T23:17:48.156Z,23.33
2022-12-12T23:20:51.828Z,24.33
2022-12-12T23:23:56.492Z,24.17
2022-12-12T23:27:01.568Z,23.90
2022-12-12T23:30:06.172Z,22.43
2022-12-12T23:33:09.769Z,23.57
2022-12-12T23:36:15.779Z,25.13
2022-12-12T23:39:20.076Z,23.00
2022-12-12T23:42:25.007Z,22.77
2022-12-12T23:45:40.949Z,23.90
2022-12-12T23:48:44.562Z,22.83
2022-12-12T23:51:50.779Z,24.30
2022-12-12T23:54:54.393Z,23.57
2022-12-12T23:57:59.333Z,24.40
